Kamakuramaru — JG5731 — position and weather

sailwx.info

Track history (hours):
 
Tides and Currents Weather Stations Pressure Air Temp Water Temp Dewpoint Dewpoint Depression Visibility Wind Speed Wind Dir Waves Ship Positions

Kamakuramaru

Last reported at 2014-Sep-22 13:34 UTC. Time now 2014-Sep-22 14:15 UTC.
Position N 35°27' E 139°40'.

Length 31 m; draft 2.5 m.

Type: Tug. MMSI: 431000439.

Date/timePositionNaut miles runAvg speedWind from/ knotsBaromVisibWave heightAir tempDewpointWater temp
2014-Sep-22 13:34N 35°27' E 139°40'0 0.0
2014-Sep-22 12:34N 35°27' E 139°40'0 0.0
2014-Sep-22 11:34N 35°27' E 139°40'0 0.0
2014-Sep-22 10:33N 35°27' E 139°40'0 0.0
2014-Sep-22 09:34N 35°27' E 139°40'0 0.0
2014-Sep-22 08:34N 35°27' E 139°40'0 0.0
2014-Sep-22 07:34N 35°27' E 139°40'0 0.0
2014-Sep-22 06:34N 35°27' E 139°40'0 0.0
2014-Sep-22 05:34N 35°27' E 139°40'0 0.0
2014-Sep-22 04:33N 35°27' E 139°40'0 0.0
2014-Sep-22 03:33N 35°27' E 139°40'0 0.0
2014-Sep-22 02:34N 35°27' E 139°40'0 0.0
2014-Sep-22 01:33N 35°27' E 139°40'0 0.0
2014-Sep-22 00:33N 35°27' E 139°40'0 0.3
2014-Sep-21 23:34N 35°27' E 139°39'0 0.5
2014-Sep-21 22:33N 35°28' E 139°39'2 2.3
2014-Sep-21 21:33N 35°28' E 139°42'3 2.8
2014-Sep-21 20:34N 35°27' E 139°39'0 0.0
2014-Sep-21 19:34N 35°27' E 139°39'0 0.0
2014-Sep-21 18:34N 35°27' E 139°39'0 0.0
2014-Sep-21 17:34N 35°27' E 139°39'0 0.0
2014-Sep-21 16:34N 35°27' E 139°39'0 0.0
2014-Sep-21 15:34N 35°27' E 139°39'0 0.0
2014-Sep-21 14:34N 35°27' E 139°39'0 0.0
2014-Sep-21 13:33N 35°27' E 139°39'0 0.0
2014-Sep-21 12:34N 35°27' E 139°39'0 0.0
2014-Sep-21 11:34N 35°27' E 139°39'0 0.0
2014-Sep-21 10:34N 35°27' E 139°39'0 0.0
2014-Sep-21 09:34N 35°27' E 139°39'3 2.8
2014-Sep-21 08:34N 35°26' E 139°42'3 3.0
2014-Sep-21 07:34N 35°29' E 139°40'2 2.2
2014-Sep-21 06:34N 35°27' E 139°39'0 0.0
2014-Sep-21 05:34N 35°27' E 139°39'0 0.0
2014-Sep-21 04:34N 35°27' E 139°39'0 0.0
2014-Sep-21 03:34N 35°27' E 139°39'0 0.0
2014-Sep-21 02:34N 35°27' E 139°39'1 0.8
2014-Sep-21 01:34N 35°27' E 139°40'1 1.0
2014-Sep-21 00:33N 35°27' E 139°40'2 1.6
2014-Sep-20 23:34N 35°27' E 139°39'0 0.0
2014-Sep-20 22:34N 35°27' E 139°39'0 0.0
2014-Sep-20 21:34N 35°27' E 139°39'0 0.0
2014-Sep-20 20:33N 35°27' E 139°39'0 0.0
2014-Sep-20 19:34N 35°27' E 139°39'0 0.0
2014-Sep-20 18:33N 35°27' E 139°39'0 0.0
2014-Sep-20 17:33N 35°27' E 139°39'0 0.0
2014-Sep-20 16:34N 35°27' E 139°39'0 0.0
2014-Sep-20 15:33N 35°27' E 139°39'0 0.0
2014-Sep-20 14:34N 35°27' E 139°39'0 0.0
2014-Sep-20 13:34N 35°27' E 139°39'0 0.0
2014-Sep-20 12:34N 35°27' E 139°39'0 0.0
2014-Sep-20 11:34N 35°27' E 139°39'0 0.0
2014-Sep-20 10:34N 35°27' E 139°39'0 0.0
2014-Sep-20 09:33N 35°27' E 139°39'0 0.0
2014-Sep-20 08:34N 35°27' E 139°39'0 0.0
2014-Sep-20 07:34N 35°27' E 139°39'0 0.0
2014-Sep-20 06:33N 35°27' E 139°39'0 0.0
2014-Sep-20 05:34N 35°27' E 139°39'0 0.0
2014-Sep-20 04:34N 35°27' E 139°39'0 0.0
2014-Sep-20 03:33N 35°27' E 139°39'0 0.0
2014-Sep-20 02:34N 35°27' E 139°39'0 0.0
2014-Sep-20 01:34N 35°27' E 139°39'0 0.0
2014-Sep-20 00:33N 35°27' E 139°39'0 0.0
2014-Sep-19 23:34N 35°27' E 139°39'4 4.0
2014-Sep-19 22:33N 35°29' E 139°43'1 1.2
2014-Sep-19 21:33N 35°28' E 139°42'3 2.7
2014-Sep-19 20:33N 35°28' E 139°39'1 1.5
2014-Sep-19 19:34N 35°27' E 139°39'2 2.2
2014-Sep-19 18:34N 35°28' E 139°42'2 2.2
2014-Sep-19 17:34N 35°27' E 139°39'0 0.0
2014-Sep-19 16:34N 35°27' E 139°39'0 0.0
2014-Sep-19 15:33N 35°27' E 139°39'0 0.0
2014-Sep-19 14:33N 35°27' E 139°39'0 0.0
2014-Sep-19 13:33N 35°27' E 139°39'0 0.0
2014-Sep-19 12:34N 35°27' E 139°39'0 0.0
2014-Sep-19 11:34N 35°27' E 139°39'0 0.0
2014-Sep-19 10:33N 35°27' E 139°39'0 0.0
2014-Sep-19 09:34N 35°27' E 139°39'1 1.0
2014-Sep-19 08:34N 35°26' E 139°40'0 0.3
2014-Sep-19 07:33N 35°27' E 139°40'2 1.5
2014-Sep-19 06:34N 35°27' E 139°39'0 0.0
2014-Sep-19 05:33N 35°27' E 139°39'0 0.0
2014-Sep-19 04:34N 35°27' E 139°39'0 0.0
2014-Sep-19 03:33N 35°27' E 139°39'0 0.0
2014-Sep-19 02:34N 35°27' E 139°39'0 0.0
2014-Sep-19 01:34N 35°27' E 139°39'0 0.0
2014-Sep-19 00:34N 35°27' E 139°39'0 0.0
2014-Sep-18 23:34N 35°27' E 139°39'0 0.0
2014-Sep-18 22:34N 35°27' E 139°39'0 0.0
2014-Sep-18 21:33N 35°27' E 139°39'0 0.0
2014-Sep-18 20:33N 35°27' E 139°39'0 0.0
2014-Sep-18 19:34N 35°27' E 139°39'0 0.0
2014-Sep-18 18:34N 35°27' E 139°39'0 0.0
2014-Sep-18 17:34N 35°27' E 139°39'0 0.0
2014-Sep-18 16:34N 35°27' E 139°39'0 0.0
2014-Sep-18 15:34N 35°27' E 139°39'0 0.0
2014-Sep-18 14:34N 35°27' E 139°39'0 0.0
2014-Sep-18 13:34N 35°27' E 139°39'0 0.0
2014-Sep-18 12:34N 35°27' E 139°39'0 0.0
2014-Sep-18 11:33N 35°27' E 139°39'0 0.0
2014-Sep-18 10:33N 35°27' E 139°39'0 0.0
2014-Sep-18 09:34N 35°27' E 139°39'0 0.0
2014-Sep-18 08:34N 35°27' E 139°39'0 0.0
2014-Sep-18 07:34N 35°27' E 139°39'0 0.0
2014-Sep-18 06:33N 35°27' E 139°39'0 0.0
2014-Sep-18 05:34N 35°27' E 139°39'0 0.0
2014-Sep-18 04:33N 35°27' E 139°39'0 0.0
2014-Sep-18 03:33N 35°27' E 139°39'0 0.0
2014-Sep-18 02:34N 35°27' E 139°39'0 0.0
2014-Sep-18 01:33N 35°27' E 139°39'0 0.0
2014-Sep-18 00:34N 35°27' E 139°39'1 0.8
2014-Sep-17 23:34N 35°27' E 139°39'3 2.8
2014-Sep-17 22:34N 35°27' E 139°43'3 2.6
2014-Sep-17 21:34N 35°27' E 139°40'0 0.0
2014-Sep-17 20:33N 35°27' E 139°40'0 0.0
2014-Sep-17 19:33N 35°27' E 139°40'0 0.0
2014-Sep-17 18:33N 35°27' E 139°40'0 0.0
2014-Sep-17 17:34N 35°27' E 139°40'0 0.0
2014-Sep-17 16:34N 35°27' E 139°40'0 0.0
2014-Sep-17 15:33N 35°27' E 139°40'0 0.0
2014-Sep-17 14:34N 35°27' E 139°40'0 0.0
2014-Sep-17 13:34N 35°27' E 139°40'0 0.0
2014-Sep-17 12:34N 35°27' E 139°40'0 0.0
2014-Sep-17 11:33N 35°27' E 139°40'0 0.0
2014-Sep-17 10:33N 35°27' E 139°40'0 0.0
2014-Sep-17 09:34N 35°27' E 139°40'0 0.0
2014-Sep-17 08:34N 35°27' E 139°40'0 0.0
2014-Sep-17 07:33N 35°27' E 139°40'0 0.0
2014-Sep-17 06:34N 35°27' E 139°40'0 0.0
2014-Sep-17 05:33N 35°27' E 139°40'0 0.0
2014-Sep-17 04:33N 35°27' E 139°40'0 0.0
2014-Sep-17 03:34N 35°27' E 139°40'0 0.0
2014-Sep-17 02:33N 35°27' E 139°40'0 0.0
2014-Sep-17 01:34N 35°27' E 139°40'0 0.0
2014-Sep-17 00:34N 35°27' E 139°40'0 0.0
2014-Sep-16 23:34N 35°27' E 139°40'1 1.4
2014-Sep-16 22:33N 35°27' E 139°41'1 1.0
2014-Sep-16 21:34N 35°27' E 139°40'3 2.5
2014-Sep-16 20:34N 35°28' E 139°42'3 2.6
2014-Sep-16 19:33N 35°27' E 139°40'0 0.0
2014-Sep-16 18:34N 35°27' E 139°40'0 0.0
2014-Sep-16 17:33N 35°27' E 139°40'0 0.0
2014-Sep-16 16:33N 35°27' E 139°40'0 0.0
2014-Sep-16 15:33N 35°27' E 139°40'0 0.0
2014-Sep-16 14:33N 35°27' E 139°40'0 0.0
2014-Sep-16 13:34N 35°27' E 139°40'0 0.0
2014-Sep-16 12:34N 35°27' E 139°40'0 0.0
2014-Sep-16 11:34N 35°27' E 139°40'0 0.0
2014-Sep-16 10:34N 35°27' E 139°40'0 0.0
2014-Sep-16 09:33N 35°27' E 139°40'0 0.0
2014-Sep-16 08:33N 35°27' E 139°40'2 2.1
2014-Sep-16 07:33N 35°28' E 139°42'2 1.6
2014-Sep-16 06:34N 35°28' E 139°40'1 1.0
2014-Sep-16 05:33N 35°27' E 139°40'0 0.0
2014-Sep-16 04:34N 35°27' E 139°40'0 0.0
2014-Sep-16 03:34N 35°27' E 139°40'0 0.0
2014-Sep-16 02:34N 35°27' E 139°40'0 0.0
2014-Sep-16 01:33N 35°27' E 139°40'0 0.0
2014-Sep-16 00:33N 35°27' E 139°40'0 0.0
2014-Sep-15 23:33N 35°27' E 139°40'0 0.0
2014-Sep-15 22:33N 35°27' E 139°40'0 0.0
2014-Sep-15 21:34N 35°27' E 139°40'0 0.0
2014-Sep-15 20:33N 35°27' E 139°40'0 0.0
2014-Sep-15 19:33N 35°27' E 139°40'0 0.0
2014-Sep-15 18:34N 35°27' E 139°40'0 0.0
2014-Sep-15 17:34N 35°27' E 139°40'0 0.0
2014-Sep-15 16:33N 35°27' E 139°40'0 0.0
2014-Sep-15 15:34N 35°27' E 139°40'0 0.0
2014-Sep-15 14:33N 35°27' E 139°40'0 0.0
2014-Sep-15 13:34N 35°27' E 139°40'0 0.0
2014-Sep-15 12:34N 35°27' E 139°40'0 0.0
2014-Sep-15 11:34N 35°27' E 139°40'0 0.0
2014-Sep-15 10:34N 35°27' E 139°40'0 0.0
2014-Sep-15 09:33N 35°27' E 139°40'0 0.0
2014-Sep-15 08:34N 35°27' E 139°40'0 0.0
2014-Sep-15 07:34N 35°27' E 139°40'0 0.0
2014-Sep-15 06:34N 35°27' E 139°40'0 0.0
2014-Sep-15 05:34N 35°27' E 139°40'0 0.0
2014-Sep-15 04:33N 35°27' E 139°40'0 0.0
2014-Sep-15 03:34N 35°27' E 139°40'0 0.0
2014-Sep-15 02:34N 35°27' E 139°40'0 0.0
2014-Sep-15 01:33N 35°27' E 139°40'0 0.0
2014-Sep-15 00:34N 35°27' E 139°40'0 0.4
2014-Sep-14 23:34N 35°27' E 139°40'2 1.9
2014-Sep-14 22:33N 35°28' E 139°42'1 1.4
2014-Sep-14 21:34N 35°27' E 139°42'1 0.9
2014-Sep-14 20:34N 35°28' E 139°41'1 0.5
2014-Sep-14 19:33N 35°28' E 139°42'0 0.0
2014-Sep-14 18:33N 35°28' E 139°42'0 0.0
2014-Sep-14 17:33N 35°28' E 139°42'0 0.5
2014-Sep-14 16:33N 35°28' E 139°42'1 0.7
2014-Sep-14 15:34N 35°28' E 139°42'1 0.5
2014-Sep-14 14:33N 35°28' E 139°42'2 1.8
2014-Sep-14 13:34N 35°27' E 139°40'2 2.1
2014-Sep-14 12:34N 35°28' E 139°42'0 0.0
2014-Sep-14 11:33N 35°28' E 139°42'1 0.5
2014-Sep-14 10:34N 35°28' E 139°42'5 4.6
2014-Sep-14 09:34N 35°29' E 139°47'2 2.2
2014-Sep-14 08:33N 35°31' E 139°46'7 6.7
2014-Sep-14 07:33N 35°27' E 139°40'0 0.0
2014-Sep-14 06:33N 35°27' E 139°40'0 0.0
2014-Sep-14 05:34N 35°27' E 139°40'0 0.0
2014-Sep-14 04:34N 35°27' E 139°40'0 0.0
2014-Sep-14 03:34N 35°27' E 139°40'0 0.0
2014-Sep-14 02:34N 35°27' E 139°40'0 0.0
2014-Sep-14 01:33N 35°27' E 139°40'0 0.0
2014-Sep-13 21:34N 35°27' E 139°40'0 0.0
2014-Sep-13 20:33N 35°27' E 139°40'0 0.0
2014-Sep-13 19:34N 35°27' E 139°40'0 0.0
2014-Sep-13 18:34N 35°27' E 139°40'0 0.0
2014-Sep-13 17:33N 35°27' E 139°40'0 0.0
2014-Sep-13 16:34N 35°27' E 139°40'0 0.0
2014-Sep-13 15:33N 35°27' E 139°40'0 0.0
2014-Sep-13 14:33N 35°27' E 139°40'0 0.0
2014-Sep-13 13:33N 35°27' E 139°40'0 0.0
2014-Sep-13 12:34N 35°27' E 139°40'0 0.0
2014-Sep-13 11:34N 35°27' E 139°40'0 0.0
2014-Sep-13 10:33N 35°27' E 139°40'0 0.0
2014-Sep-13 09:33N 35°27' E 139°40'0 0.0
2014-Sep-13 08:33N 35°27' E 139°40'0 0.0
2014-Sep-13 07:33N 35°27' E 139°40'0 0.0
2014-Sep-13 06:34N 35°27' E 139°40'0 0.0
2014-Sep-13 05:34N 35°27' E 139°40'0 0.4
2014-Sep-13 04:33N 35°27' E 139°39'7 7.2
2014-Sep-13 03:33N 35°30' E 139°47'3 3.3
2014-Sep-13 02:33N 35°29' E 139°43'4 3.7
2014-Sep-13 01:34N 35°27' E 139°40'0 0.0
2014-Sep-13 00:34N 35°27' E 139°40'0 0.0
2014-Sep-12 23:34N 35°27' E 139°40'2 1.6
2014-Sep-12 22:34N 35°28' E 139°41'2 1.8
2014-Sep-12 21:33N 35°27' E 139°43'2 2.5
2014-Sep-12 20:34N 35°27' E 139°40'0 0.0
2014-Sep-12 19:33N 35°27' E 139°40'0 0.0
2014-Sep-12 18:33N 35°27' E 139°40'0 0.0
2014-Sep-12 17:33N 35°27' E 139°40'0 0.0
2014-Sep-12 16:34N 35°27' E 139°40'0 0.0
2014-Sep-12 15:34N 35°27' E 139°40'0 0.0
2014-Sep-12 14:33N 35°27' E 139°40'0 0.0
2014-Sep-12 13:34N 35°27' E 139°40'  
Track history (hours):
 
Tides and Currents Weather Stations Pressure Air Temp Water Temp Dewpoint Dewpoint Depression Visibility Wind Speed Wind Dir Waves Ship Positions

Kamakuramaru

Last reported at 2014-Sep-22 13:34 UTC. Time now 2014-Sep-22 14:15 UTC.
Position N 35°27' E 139°40'.

Length 31 m; draft 2.5 m.

Type: Tug. MMSI: 431000439.

Date/timePositionNaut miles runAvg speedWind from/ knotsBaromVisibWave heightAir tempDewpointWater temp
2014-Sep-22 13:34N 35°27' E 139°40'0 0.0
2014-Sep-22 12:34N 35°27' E 139°40'0 0.0
2014-Sep-22 11:34N 35°27' E 139°40'0 0.0
2014-Sep-22 10:33N 35°27' E 139°40'0 0.0
2014-Sep-22 09:34N 35°27' E 139°40'0 0.0
2014-Sep-22 08:34N 35°27' E 139°40'0 0.0
2014-Sep-22 07:34N 35°27' E 139°40'0 0.0
2014-Sep-22 06:34N 35°27' E 139°40'0 0.0
2014-Sep-22 05:34N 35°27' E 139°40'0 0.0
2014-Sep-22 04:33N 35°27' E 139°40'0 0.0
2014-Sep-22 03:33N 35°27' E 139°40'0 0.0
2014-Sep-22 02:34N 35°27' E 139°40'0 0.0
2014-Sep-22 01:33N 35°27' E 139°40'0 0.0
2014-Sep-22 00:33N 35°27' E 139°40'0 0.3
2014-Sep-21 23:34N 35°27' E 139°39'0 0.5
2014-Sep-21 22:33N 35°28' E 139°39'2 2.3
2014-Sep-21 21:33N 35°28' E 139°42'3 2.8
2014-Sep-21 20:34N 35°27' E 139°39'0 0.0
2014-Sep-21 19:34N 35°27' E 139°39'0 0.0
2014-Sep-21 18:34N 35°27' E 139°39'0 0.0
2014-Sep-21 17:34N 35°27' E 139°39'0 0.0
2014-Sep-21 16:34N 35°27' E 139°39'0 0.0
2014-Sep-21 15:34N 35°27' E 139°39'0 0.0
2014-Sep-21 14:34N 35°27' E 139°39'0 0.0
2014-Sep-21 13:33N 35°27' E 139°39'0 0.0
2014-Sep-21 12:34N 35°27' E 139°39'0 0.0
2014-Sep-21 11:34N 35°27' E 139°39'0 0.0
2014-Sep-21 10:34N 35°27' E 139°39'0 0.0
2014-Sep-21 09:34N 35°27' E 139°39'3 2.8
2014-Sep-21 08:34N 35°26' E 139°42'3 3.0
2014-Sep-21 07:34N 35°29' E 139°40'2 2.2
2014-Sep-21 06:34N 35°27' E 139°39'0 0.0
2014-Sep-21 05:34N 35°27' E 139°39'0 0.0
2014-Sep-21 04:34N 35°27' E 139°39'0 0.0
2014-Sep-21 03:34N 35°27' E 139°39'0 0.0
2014-Sep-21 02:34N 35°27' E 139°39'1 0.8
2014-Sep-21 01:34N 35°27' E 139°40'1 1.0
2014-Sep-21 00:33N 35°27' E 139°40'2 1.6
2014-Sep-20 23:34N 35°27' E 139°39'0 0.0
2014-Sep-20 22:34N 35°27' E 139°39'0 0.0
2014-Sep-20 21:34N 35°27' E 139°39'0 0.0
2014-Sep-20 20:33N 35°27' E 139°39'0 0.0
2014-Sep-20 19:34N 35°27' E 139°39'0 0.0
2014-Sep-20 18:33N 35°27' E 139°39'0 0.0
2014-Sep-20 17:33N 35°27' E 139°39'0 0.0
2014-Sep-20 16:34N 35°27' E 139°39'0 0.0
2014-Sep-20 15:33N 35°27' E 139°39'0 0.0
2014-Sep-20 14:34N 35°27' E 139°39'0 0.0
2014-Sep-20 13:34N 35°27' E 139°39'0 0.0
2014-Sep-20 12:34N 35°27' E 139°39'0 0.0
2014-Sep-20 11:34N 35°27' E 139°39'0 0.0
2014-Sep-20 10:34N 35°27' E 139°39'0 0.0
2014-Sep-20 09:33N 35°27' E 139°39'0 0.0
2014-Sep-20 08:34N 35°27' E 139°39'0 0.0
2014-Sep-20 07:34N 35°27' E 139°39'0 0.0
2014-Sep-20 06:33N 35°27' E 139°39'0 0.0
2014-Sep-20 05:34N 35°27' E 139°39'0 0.0
2014-Sep-20 04:34N 35°27' E 139°39'0 0.0
2014-Sep-20 03:33N 35°27' E 139°39'0 0.0
2014-Sep-20 02:34N 35°27' E 139°39'0 0.0
2014-Sep-20 01:34N 35°27' E 139°39'0 0.0
2014-Sep-20 00:33N 35°27' E 139°39'0 0.0
2014-Sep-19 23:34N 35°27' E 139°39'4 4.0
2014-Sep-19 22:33N 35°29' E 139°43'1 1.2
2014-Sep-19 21:33N 35°28' E 139°42'3 2.7
2014-Sep-19 20:33N 35°28' E 139°39'1 1.5
2014-Sep-19 19:34N 35°27' E 139°39'2 2.2
2014-Sep-19 18:34N 35°28' E 139°42'2 2.2
2014-Sep-19 17:34N 35°27' E 139°39'0 0.0
2014-Sep-19 16:34N 35°27' E 139°39'0 0.0
2014-Sep-19 15:33N 35°27' E 139°39'0 0.0
2014-Sep-19 14:33N 35°27' E 139°39'0 0.0
2014-Sep-19 13:33N 35°27' E 139°39'0 0.0
2014-Sep-19 12:34N 35°27' E 139°39'0 0.0
2014-Sep-19 11:34N 35°27' E 139°39'0 0.0
2014-Sep-19 10:33N 35°27' E 139°39'0 0.0
2014-Sep-19 09:34N 35°27' E 139°39'1 1.0
2014-Sep-19 08:34N 35°26' E 139°40'0 0.3
2014-Sep-19 07:33N 35°27' E 139°40'2 1.5
2014-Sep-19 06:34N 35°27' E 139°39'0 0.0
2014-Sep-19 05:33N 35°27' E 139°39'0 0.0
2014-Sep-19 04:34N 35°27' E 139°39'0 0.0
2014-Sep-19 03:33N 35°27' E 139°39'0 0.0
2014-Sep-19 02:34N 35°27' E 139°39'0 0.0
2014-Sep-19 01:34N 35°27' E 139°39'0 0.0
2014-Sep-19 00:34N 35°27' E 139°39'0 0.0
2014-Sep-18 23:34N 35°27' E 139°39'0 0.0
2014-Sep-18 22:34N 35°27' E 139°39'0 0.0
2014-Sep-18 21:33N 35°27' E 139°39'0 0.0
2014-Sep-18 20:33N 35°27' E 139°39'0 0.0
2014-Sep-18 19:34N 35°27' E 139°39'0 0.0
2014-Sep-18 18:34N 35°27' E 139°39'0 0.0
2014-Sep-18 17:34N 35°27' E 139°39'0 0.0
2014-Sep-18 16:34N 35°27' E 139°39'0 0.0
2014-Sep-18 15:34N 35°27' E 139°39'0 0.0
2014-Sep-18 14:34N 35°27' E 139°39'0 0.0
2014-Sep-18 13:34N 35°27' E 139°39'0 0.0
2014-Sep-18 12:34N 35°27' E 139°39'0 0.0
2014-Sep-18 11:33N 35°27' E 139°39'0 0.0
2014-Sep-18 10:33N 35°27' E 139°39'0 0.0
2014-Sep-18 09:34N 35°27' E 139°39'0 0.0
2014-Sep-18 08:34N 35°27' E 139°39'0 0.0
2014-Sep-18 07:34N 35°27' E 139°39'0 0.0
2014-Sep-18 06:33N 35°27' E 139°39'0 0.0
2014-Sep-18 05:34N 35°27' E 139°39'0 0.0
2014-Sep-18 04:33N 35°27' E 139°39'0 0.0
2014-Sep-18 03:33N 35°27' E 139°39'0 0.0
2014-Sep-18 02:34N 35°27' E 139°39'0 0.0
2014-Sep-18 01:33N 35°27' E 139°39'0 0.0
2014-Sep-18 00:34N 35°27' E 139°39'1 0.8
2014-Sep-17 23:34N 35°27' E 139°39'3 2.8
2014-Sep-17 22:34N 35°27' E 139°43'3 2.6
2014-Sep-17 21:34N 35°27' E 139°40'0 0.0
2014-Sep-17 20:33N 35°27' E 139°40'0 0.0
2014-Sep-17 19:33N 35°27' E 139°40'0 0.0
2014-Sep-17 18:33N 35°27' E 139°40'0 0.0
2014-Sep-17 17:34N 35°27' E 139°40'0 0.0
2014-Sep-17 16:34N 35°27' E 139°40'0 0.0
2014-Sep-17 15:33N 35°27' E 139°40'0 0.0
2014-Sep-17 14:34N 35°27' E 139°40'0 0.0
2014-Sep-17 13:34N 35°27' E 139°40'0 0.0
2014-Sep-17 12:34N 35°27' E 139°40'0 0.0
2014-Sep-17 11:33N 35°27' E 139°40'0 0.0
2014-Sep-17 10:33N 35°27' E 139°40'0 0.0
2014-Sep-17 09:34N 35°27' E 139°40'0 0.0
2014-Sep-17 08:34N 35°27' E 139°40'0 0.0
2014-Sep-17 07:33N 35°27' E 139°40'0 0.0
2014-Sep-17 06:34N 35°27' E 139°40'0 0.0
2014-Sep-17 05:33N 35°27' E 139°40'0 0.0
2014-Sep-17 04:33N 35°27' E 139°40'0 0.0
2014-Sep-17 03:34N 35°27' E 139°40'0 0.0
2014-Sep-17 02:33N 35°27' E 139°40'0 0.0
2014-Sep-17 01:34N 35°27' E 139°40'0 0.0
2014-Sep-17 00:34N 35°27' E 139°40'0 0.0
2014-Sep-16 23:34N 35°27' E 139°40'1 1.4
2014-Sep-16 22:33N 35°27' E 139°41'1 1.0
2014-Sep-16 21:34N 35°27' E 139°40'3 2.5
2014-Sep-16 20:34N 35°28' E 139°42'3 2.6
2014-Sep-16 19:33N 35°27' E 139°40'0 0.0
2014-Sep-16 18:34N 35°27' E 139°40'0 0.0
2014-Sep-16 17:33N 35°27' E 139°40'0 0.0
2014-Sep-16 16:33N 35°27' E 139°40'0 0.0
2014-Sep-16 15:33N 35°27' E 139°40'0 0.0
2014-Sep-16 14:33N 35°27' E 139°40'0 0.0
2014-Sep-16 13:34N 35°27' E 139°40'0 0.0
2014-Sep-16 12:34N 35°27' E 139°40'0 0.0
2014-Sep-16 11:34N 35°27' E 139°40'0 0.0
2014-Sep-16 10:34N 35°27' E 139°40'0 0.0
2014-Sep-16 09:33N 35°27' E 139°40'0 0.0
2014-Sep-16 08:33N 35°27' E 139°40'2 2.1
2014-Sep-16 07:33N 35°28' E 139°42'2 1.6
2014-Sep-16 06:34N 35°28' E 139°40'1 1.0
2014-Sep-16 05:33N 35°27' E 139°40'0 0.0
2014-Sep-16 04:34N 35°27' E 139°40'0 0.0
2014-Sep-16 03:34N 35°27' E 139°40'0 0.0
2014-Sep-16 02:34N 35°27' E 139°40'0 0.0
2014-Sep-16 01:33N 35°27' E 139°40'0 0.0
2014-Sep-16 00:33N 35°27' E 139°40'0 0.0
2014-Sep-15 23:33N 35°27' E 139°40'0 0.0
2014-Sep-15 22:33N 35°27' E 139°40'0 0.0
2014-Sep-15 21:34N 35°27' E 139°40'0 0.0
2014-Sep-15 20:33N 35°27' E 139°40'0 0.0
2014-Sep-15 19:33N 35°27' E 139°40'0 0.0
2014-Sep-15 18:34N 35°27' E 139°40'0 0.0
2014-Sep-15 17:34N 35°27' E 139°40'0 0.0
2014-Sep-15 16:33N 35°27' E 139°40'0 0.0
2014-Sep-15 15:34N 35°27' E 139°40'0 0.0
2014-Sep-15 14:33N 35°27' E 139°40'0 0.0
2014-Sep-15 13:34N 35°27' E 139°40'0 0.0
2014-Sep-15 12:34N 35°27' E 139°40'0 0.0
2014-Sep-15 11:34N 35°27' E 139°40'0 0.0
2014-Sep-15 10:34N 35°27' E 139°40'0 0.0
2014-Sep-15 09:33N 35°27' E 139°40'0 0.0
2014-Sep-15 08:34N 35°27' E 139°40'0 0.0
2014-Sep-15 07:34N 35°27' E 139°40'0 0.0
2014-Sep-15 06:34N 35°27' E 139°40'0 0.0
2014-Sep-15 05:34N 35°27' E 139°40'0 0.0
2014-Sep-15 04:33N 35°27' E 139°40'0 0.0
2014-Sep-15 03:34N 35°27' E 139°40'0 0.0
2014-Sep-15 02:34N 35°27' E 139°40'0 0.0
2014-Sep-15 01:33N 35°27' E 139°40'0 0.0
2014-Sep-15 00:34N 35°27' E 139°40'0 0.4
2014-Sep-14 23:34N 35°27' E 139°40'2 1.9
2014-Sep-14 22:33N 35°28' E 139°42'1 1.4
2014-Sep-14 21:34N 35°27' E 139°42'1 0.9
2014-Sep-14 20:34N 35°28' E 139°41'1 0.5
2014-Sep-14 19:33N 35°28' E 139°42'0 0.0
2014-Sep-14 18:33N 35°28' E 139°42'0 0.0
2014-Sep-14 17:33N 35°28' E 139°42'0 0.5
2014-Sep-14 16:33N 35°28' E 139°42'1 0.7
2014-Sep-14 15:34N 35°28' E 139°42'1 0.5
2014-Sep-14 14:33N 35°28' E 139°42'2 1.8
2014-Sep-14 13:34N 35°27' E 139°40'2 2.1
2014-Sep-14 12:34N 35°28' E 139°42'0 0.0
2014-Sep-14 11:33N 35°28' E 139°42'1 0.5
2014-Sep-14 10:34N 35°28' E 139°42'5 4.6
2014-Sep-14 09:34N 35°29' E 139°47'2 2.2
2014-Sep-14 08:33N 35°31' E 139°46'7 6.7
2014-Sep-14 07:33N 35°27' E 139°40'0 0.0
2014-Sep-14 06:33N 35°27' E 139°40'0 0.0
2014-Sep-14 05:34N 35°27' E 139°40'0 0.0
2014-Sep-14 04:34N 35°27' E 139°40'0 0.0
2014-Sep-14 03:34N 35°27' E 139°40'0 0.0
2014-Sep-14 02:34N 35°27' E 139°40'0 0.0
2014-Sep-14 01:33N 35°27' E 139°40'0 0.0
2014-Sep-13 21:34N 35°27' E 139°40'0 0.0
2014-Sep-13 20:33N 35°27' E 139°40'0 0.0
2014-Sep-13 19:34N 35°27' E 139°40'0 0.0
2014-Sep-13 18:34N 35°27' E 139°40'0 0.0
2014-Sep-13 17:33N 35°27' E 139°40'0 0.0
2014-Sep-13 16:34N 35°27' E 139°40'0 0.0
2014-Sep-13 15:33N 35°27' E 139°40'0 0.0
2014-Sep-13 14:33N 35°27' E 139°40'0 0.0
2014-Sep-13 13:33N 35°27' E 139°40'0 0.0
2014-Sep-13 12:34N 35°27' E 139°40'0 0.0
2014-Sep-13 11:34N 35°27' E 139°40'0 0.0
2014-Sep-13 10:33N 35°27' E 139°40'0 0.0
2014-Sep-13 09:33N 35°27' E 139°40'0 0.0
2014-Sep-13 08:33N 35°27' E 139°40'0 0.0
2014-Sep-13 07:33N 35°27' E 139°40'0 0.0
2014-Sep-13 06:34N 35°27' E 139°40'0 0.0
2014-Sep-13 05:34N 35°27' E 139°40'0 0.4
2014-Sep-13 04:33N 35°27' E 139°39'7 7.2
2014-Sep-13 03:33N 35°30' E 139°47'3 3.3
2014-Sep-13 02:33N 35°29' E 139°43'4 3.7
2014-Sep-13 01:34N 35°27' E 139°40'0 0.0
2014-Sep-13 00:34N 35°27' E 139°40'0 0.0
2014-Sep-12 23:34N 35°27' E 139°40'2 1.6
2014-Sep-12 22:34N 35°28' E 139°41'2 1.8
2014-Sep-12 21:33N 35°27' E 139°43'2 2.5
2014-Sep-12 20:34N 35°27' E 139°40'0 0.0
2014-Sep-12 19:33N 35°27' E 139°40'0 0.0
2014-Sep-12 18:33N 35°27' E 139°40'0 0.0
2014-Sep-12 17:33N 35°27' E 139°40'0 0.0
2014-Sep-12 16:34N 35°27' E 139°40'0 0.0
2014-Sep-12 15:34N 35°27' E 139°40'0 0.0
2014-Sep-12 14:33N 35°27' E 139°40'0 0.0
2014-Sep-12 13:34N 35°27' E 139°40'  

Dump ship's entire track history